sensor_id;sensor_type;location;lat;lon;timestamp;temperature;humidity
41481;DHT22;27217;51.220;5.308;2023-06-22T00:00:53;22.40;99.90
41481;DHT22;27217;51.220;5.308;2023-06-22T00:03:20;22.30;99.90
41481;DHT22;27217;51.220;5.308;2023-06-22T00:05:46;22.30;99.90
41481;DHT22;27217;51.220;5.308;2023-06-22T00:08:13;22.30;99.90
41481;DHT22;27217;51.220;5.308;2023-06-22T00:10:39;22.20;99.90
41481;DHT22;27217;51.220;5.308;2023-06-22T00:13:06;22.20;99.90
41481;DHT22;27217;51.220;5.308;2023-06-22T00:15:32;22.10;99.90
41481;DHT22;27217;51.220;5.308;2023-06-22T00:17:58;22.10;99.90
41481;DHT22;27217;51.220;5.308;2023-06-22T00:20:25;22.10;99.90
41481;DHT22;27217;51.220;5.308;2023-06-22T00:22:58;22.00;99.90
41481;DHT22;27217;51.220;5.308;2023-06-22T00:25:25;22.00;99.90
41481;DHT22;27217;51.220;5.308;2023-06-22T00:27:50;21.90;99.90
41481;DHT22;27217;51.220;5.308;2023-06-22T00:30:17;21.90;99.90
41481;DHT22;27217;51.220;5.308;2023-06-22T00:32:43;21.80;99.90
41481;DHT22;27217;51.220;5.308;2023-06-22T00:35:10;21.90;99.90
41481;DHT22;27217;51.220;5.308;2023-06-22T00:37:39;21.80;99.90
41481;DHT22;27217;51.220;5.308;2023-06-22T00:40:11;21.70;99.90
41481;DHT22;27217;51.220;5.308;2023-06-22T00:42:38;21.70;99.90
41481;DHT22;27217;51.220;5.308;2023-06-22T00:45:05;21.60;99.90
41481;DHT22;27217;51.220;5.308;2023-06-22T00:47:31;21.60;99.90
41481;DHT22;27217;51.220;5.308;2023-06-22T00:49:57;21.50;99.90
41481;DHT22;27217;51.220;5.308;2023-06-22T00:52:23;21.40;99.90
41481;DHT22;27217;51.220;5.308;2023-06-22T00:54:55;21.30;99.90
41481;DHT22;27217;51.220;5.308;2023-06-22T00:57:22;21.30;99.90
41481;DHT22;27217;51.220;5.308;2023-06-22T00:59:54;21.10;99.90
41481;DHT22;27217;51.220;5.308;2023-06-22T01:02:20;21.10;99.90
41481;DHT22;27217;51.220;5.308;2023-06-22T01:04:46;21.20;99.90
41481;DHT22;27217;51.220;5.308;2023-06-22T01:07:28;21.40;99.90
41481;DHT22;27217;51.220;5.308;2023-06-22T01:12:37;21.20;99.90
41481;DHT22;27217;51.220;5.308;2023-06-22T01:15:14;21.20;99.90
41481;DHT22;27217;51.220;5.308;2023-06-22T01:17:42;21.30;99.90
41481;DHT22;27217;51.220;5.308;2023-06-22T01:20:10;21.40;99.90
41481;DHT22;27217;51.220;5.308;2023-06-22T01:25:51;21.40;99.90
41481;DHT22;27217;51.220;5.308;2023-06-22T01:28:30;21.30;99.90
41481;DHT22;27217;51.220;5.308;2023-06-22T01:30:58;21.30;99.90
41481;DHT22;27217;51.220;5.308;2023-06-22T01:33:37;21.30;99.90
41481;DHT22;27217;51.220;5.308;2023-06-22T01:36:04;21.30;99.90
41481;DHT22;27217;51.220;5.308;2023-06-22T01:38:31;21.30;99.90
41481;DHT22;27217;51.220;5.308;2023-06-22T01:40:58;21.30;99.90
41481;DHT22;27217;51.220;5.308;2023-06-22T01:43:26;21.30;99.90
41481;DHT22;27217;51.220;5.308;2023-06-22T01:45:53;21.10;99.90
41481;DHT22;27217;51.220;5.308;2023-06-22T01:48:19;21.10;99.90
41481;DHT22;27217;51.220;5.308;2023-06-22T01:50:46;21.00;99.90
41481;DHT22;27217;51.220;5.308;2023-06-22T01:53:12;21.20;99.90
41481;DHT22;27217;51.220;5.308;2023-06-22T01:55:38;21.10;99.90
41481;DHT22;27217;51.220;5.308;2023-06-22T01:58:04;21.20;99.90
41481;DHT22;27217;51.220;5.308;2023-06-22T02:00:34;21.20;99.90
41481;DHT22;27217;51.220;5.308;2023-06-22T02:03:08;21.10;99.90
41481;DHT22;27217;51.220;5.308;2023-06-22T02:05:41;21.10;99.90
41481;DHT22;27217;51.220;5.308;2023-06-22T02:08:17;21.10;99.90
41481;DHT22;27217;51.220;5.308;2023-06-22T02:10:47;21.10;99.90
41481;DHT22;27217;51.220;5.308;2023-06-22T02:13:14;20.90;99.90
41481;DHT22;27217;51.220;5.308;2023-06-22T02:15:41;20.70;99.90
41481;DHT22;27217;51.220;5.308;2023-06-22T02:18:07;20.90;99.90
41481;DHT22;27217;51.220;5.308;2023-06-22T02:20:39;20.90;99.90
41481;DHT22;27217;51.220;5.308;2023-06-22T02:23:06;21.00;99.90
41481;DHT22;27217;51.220;5.308;2023-06-22T02:25:32;21.10;99.90
41481;DHT22;27217;51.220;5.308;2023-06-22T02:27:58;21.10;99.90
41481;DHT22;27217;51.220;5.308;2023-06-22T02:30:24;21.10;99.90
41481;DHT22;27217;51.220;5.308;2023-06-22T02:32:50;21.20;99.90
41481;DHT22;27217;51.220;5.308;2023-06-22T02:35:25;21.10;99.90
41481;DHT22;27217;51.220;5.308;2023-06-22T02:37:50;21.00;99.90
41481;DHT22;27217;51.220;5.308;2023-06-22T02:40:17;20.90;99.90
41481;DHT22;27217;51.220;5.308;2023-06-22T02:42:44;20.90;99.90
41481;DHT22;27217;51.220;5.308;2023-06-22T02:45:10;20.70;99.90
41481;DHT22;27217;51.220;5.308;2023-06-22T02:47:35;20.70;99.90
41481;DHT22;27217;51.220;5.308;2023-06-22T02:50:01;20.60;99.90
41481;DHT22;27217;51.220;5.308;2023-06-22T02:52:27;20.50;99.90
41481;DHT22;27217;51.220;5.308;2023-06-22T02:54:53;20.50;99.90
41481;DHT22;27217;51.220;5.308;2023-06-22T02:57:19;20.60;99.90
41481;DHT22;27217;51.220;5.308;2023-06-22T02:59:44;20.80;99.90
41481;DHT22;27217;51.220;5.308;2023-06-22T03:02:10;20.70;99.90
41481;DHT22;27217;51.220;5.308;2023-06-22T03:04:36;20.80;99.90
41481;DHT22;27217;51.220;5.308;2023-06-22T03:07:02;20.70;99.90
41481;DHT22;27217;51.220;5.308;2023-06-22T03:09:28;20.60;99.90
41481;DHT22;27217;51.220;5.308;2023-06-22T03:11:55;20.50;99.90
41481;DHT22;27217;51.220;5.308;2023-06-22T03:14:21;20.50;99.90
41481;DHT22;27217;51.220;5.308;2023-06-22T03:16:46;20.60;99.90
41481;DHT22;27217;51.220;5.308;2023-06-22T03:19:13;20.50;99.90
41481;DHT22;27217;51.220;5.308;2023-06-22T03:21:39;20.60;99.90
41481;DHT22;27217;51.220;5.308;2023-06-22T03:24:06;20.50;99.90
41481;DHT22;27217;51.220;5.308;2023-06-22T03:26:32;20.50;99.90
41481;DHT22;27217;51.220;5.308;2023-06-22T03:28:58;20.40;99.90
41481;DHT22;27217;51.220;5.308;2023-06-22T03:31:24;20.60;99.90
41481;DHT22;27217;51.220;5.308;2023-06-22T03:33:50;20.70;99.90
41481;DHT22;27217;51.220;5.308;2023-06-22T03:36:19;20.80;99.90
41481;DHT22;27217;51.220;5.308;2023-06-22T03:38:50;20.80;99.90
41481;DHT22;27217;51.220;5.308;2023-06-22T03:41:16;20.70;99.90
41481;DHT22;27217;51.220;5.308;2023-06-22T03:43:42;20.60;99.90
41481;DHT22;27217;51.220;5.308;2023-06-22T03:46:08;20.80;99.90
41481;DHT22;27217;51.220;5.308;2023-06-22T03:48:35;20.60;99.90
41481;DHT22;27217;51.220;5.308;2023-06-22T03:51:02;20.70;99.90
41481;DHT22;27217;51.220;5.308;2023-06-22T03:53:28;20.60;99.90
41481;DHT22;27217;51.220;5.308;2023-06-22T03:55:54;20.60;99.90
41481;DHT22;27217;51.220;5.308;2023-06-22T03:58:21;20.60;99.90
41481;DHT22;27217;51.220;5.308;2023-06-22T04:00:48;20.60;99.90
41481;DHT22;27217;51.220;5.308;2023-06-22T04:03:14;20.60;99.90
41481;DHT22;27217;51.220;5.308;2023-06-22T04:05:40;20.50;99.90
41481;DHT22;27217;51.220;5.308;2023-06-22T04:08:07;20.40;99.90
41481;DHT22;27217;51.220;5.308;2023-06-22T04:10:33;20.40;99.90
41481;DHT22;27217;51.220;5.308;2023-06-22T04:12:59;20.60;99.90
41481;DHT22;27217;51.220;5.308;2023-06-22T04:15:25;20.80;99.90
41481;DHT22;27217;51.220;5.308;2023-06-22T04:17:51;20.90;99.90
41481;DHT22;27217;51.220;5.308;2023-06-22T04:20:17;20.90;99.90
41481;DHT22;27217;51.220;5.308;2023-06-22T04:22:42;20.80;99.90
41481;DHT22;27217;51.220;5.308;2023-06-22T04:25:08;20.80;99.90
41481;DHT22;27217;51.220;5.308;2023-06-22T04:27:34;20.90;99.90
41481;DHT22;27217;51.220;5.308;2023-06-22T04:30:06;20.90;99.90
41481;DHT22;27217;51.220;5.308;2023-06-22T04:32:33;21.00;99.90
41481;DHT22;27217;51.220;5.308;2023-06-22T04:34:59;21.00;99.90
41481;DHT22;27217;51.220;5.308;2023-06-22T04:37:30;21.00;99.90
41481;DHT22;27217;51.220;5.308;2023-06-22T04:39:56;20.90;99.90
41481;DHT22;27217;51.220;5.308;2023-06-22T04:42:22;20.90;99.90
41481;DHT22;27217;51.220;5.308;2023-06-22T04:44:48;20.70;99.90
41481;DHT22;27217;51.220;5.308;2023-06-22T04:47:14;20.80;99.90
41481;DHT22;27217;51.220;5.308;2023-06-22T04:49:40;20.90;99.90
41481;DHT22;27217;51.220;5.308;2023-06-22T04:52:10;20.90;99.90
41481;DHT22;27217;51.220;5.308;2023-06-22T04:54:37;20.70;99.90
41481;DHT22;27217;51.220;5.308;2023-06-22T04:57:05;20.70;99.90
41481;DHT22;27217;51.220;5.308;2023-06-22T04:59:35;20.70;99.90
41481;DHT22;27217;51.220;5.308;2023-06-22T05:02:02;20.70;99.90
41481;DHT22;27217;51.220;5.308;2023-06-22T05:04:29;20.90;99.90
41481;DHT22;27217;51.220;5.308;2023-06-22T05:06:59;20.80;99.90
41481;DHT22;27217;51.220;5.308;2023-06-22T05:09:29;20.70;99.90
41481;DHT22;27217;51.220;5.308;2023-06-22T05:11:55;20.80;99.90
41481;DHT22;27217;51.220;5.308;2023-06-22T05:14:25;20.80;99.90
41481;DHT22;27217;51.220;5.308;2023-06-22T05:16:51;21.00;99.90
41481;DHT22;27217;51.220;5.308;2023-06-22T05:19:17;21.10;99.90
41481;DHT22;27217;51.220;5.308;2023-06-22T05:21:43;21.00;99.90
41481;DHT22;27217;51.220;5.308;2023-06-22T05:24:09;20.90;99.90
41481;DHT22;27217;51.220;5.308;2023-06-22T05:26:35;20.70;99.90
41481;DHT22;27217;51.220;5.308;2023-06-22T05:29:02;20.90;99.90
41481;DHT22;27217;51.220;5.308;2023-06-22T05:31:28;20.80;99.90
41481;DHT22;27217;51.220;5.308;2023-06-22T05:33:55;20.90;99.90
41481;DHT22;27217;51.220;5.308;2023-06-22T05:36:22;20.90;99.90
41481;DHT22;27217;51.220;5.308;2023-06-22T05:38:52;21.00;99.90
41481;DHT22;27217;51.220;5.308;2023-06-22T05:41:18;20.90;99.90
41481;DHT22;27217;51.220;5.308;2023-06-22T05:43:44;20.90;99.90
41481;DHT22;27217;51.220;5.308;2023-06-22T05:46:10;21.00;99.90
41481;DHT22;27217;51.220;5.308;2023-06-22T05:48:36;21.10;99.90
41481;DHT22;27217;51.220;5.308;2023-06-22T05:51:01;21.20;99.90
41481;DHT22;27217;51.220;5.308;2023-06-22T05:53:30;21.10;99.90
41481;DHT22;27217;51.220;5.308;2023-06-22T05:55:56;21.10;99.90
41481;DHT22;27217;51.220;5.308;2023-06-22T05:58:22;21.20;99.90
41481;DHT22;27217;51.220;5.308;2023-06-22T06:00:48;21.30;99.90
41481;DHT22;27217;51.220;5.308;2023-06-22T06:03:14;21.30;99.90
41481;DHT22;27217;51.220;5.308;2023-06-22T06:05:43;21.30;99.90
41481;DHT22;27217;51.220;5.308;2023-06-22T06:08:09;21.20;99.90
41481;DHT22;27217;51.220;5.308;2023-06-22T06:10:36;21.10;99.90
41481;DHT22;27217;51.220;5.308;2023-06-22T06:13:02;21.10;99.90
41481;DHT22;27217;51.220;5.308;2023-06-22T06:15:30;21.00;99.90
41481;DHT22;27217;51.220;5.308;2023-06-22T06:17:56;20.50;99.90
41481;DHT22;27217;51.220;5.308;2023-06-22T06:20:23;20.30;99.90
41481;DHT22;27217;51.220;5.308;2023-06-22T06:22:49;20.00;99.90
41481;DHT22;27217;51.220;5.308;2023-06-22T06:25:16;20.00;99.90
41481;DHT22;27217;51.220;5.308;2023-06-22T06:27:48;19.70;99.90
41481;DHT22;27217;51.220;5.308;2023-06-22T06:30:15;19.70;99.90
41481;DHT22;27217;51.220;5.308;2023-06-22T06:32:41;19.70;99.90
41481;DHT22;27217;51.220;5.308;2023-06-22T06:35:09;19.90;99.90
41481;DHT22;27217;51.220;5.308;2023-06-22T06:37:45;19.80;99.90
41481;DHT22;27217;51.220;5.308;2023-06-22T06:40:12;20.00;99.90
41481;DHT22;27217;51.220;5.308;2023-06-22T06:42:39;19.90;99.90
41481;DHT22;27217;51.220;5.308;2023-06-22T06:45:20;19.90;99.90
41481;DHT22;27217;51.220;5.308;2023-06-22T06:47:48;20.10;99.90
41481;DHT22;27217;51.220;5.308;2023-06-22T06:50:14;20.10;99.90
41481;DHT22;27217;51.220;5.308;2023-06-22T06:52:42;20.20;99.90
41481;DHT22;27217;51.220;5.308;2023-06-22T06:55:09;20.40;99.90
41481;DHT22;27217;51.220;5.308;2023-06-22T06:57:39;20.50;99.90
41481;DHT22;27217;51.220;5.308;2023-06-22T07:00:06;20.60;99.90
41481;DHT22;27217;51.220;5.308;2023-06-22T07:02:35;20.80;99.90
41481;DHT22;27217;51.220;5.308;2023-06-22T07:05:01;21.00;99.90
41481;DHT22;27217;51.220;5.308;2023-06-22T07:07:30;20.90;99.90
41481;DHT22;27217;51.220;5.308;2023-06-22T07:09:55;21.00;99.90
41481;DHT22;27217;51.220;5.308;2023-06-22T07:12:21;21.00;99.90
41481;DHT22;27217;51.220;5.308;2023-06-22T07:14:47;21.00;99.90
41481;DHT22;27217;51.220;5.308;2023-06-22T07:17:13;21.00;99.90
41481;DHT22;27217;51.220;5.308;2023-06-22T07:19:42;21.00;99.90
41481;DHT22;27217;51.220;5.308;2023-06-22T07:22:08;21.00;99.90
41481;DHT22;27217;51.220;5.308;2023-06-22T07:24:34;20.90;99.90
41481;DHT22;27217;51.220;5.308;2023-06-22T07:27:00;20.90;99.90
41481;DHT22;27217;51.220;5.308;2023-06-22T07:29:27;20.80;99.90
41481;DHT22;27217;51.220;5.308;2023-06-22T07:31:53;20.70;99.90
41481;DHT22;27217;51.220;5.308;2023-06-22T07:34:19;20.60;99.90
41481;DHT22;27217;51.220;5.308;2023-06-22T07:36:45;20.40;99.90
41481;DHT22;27217;51.220;5.308;2023-06-22T07:39:11;20.30;99.90
41481;DHT22;27217;51.220;5.308;2023-06-22T07:41:39;20.40;99.90
41481;DHT22;27217;51.220;5.308;2023-06-22T07:44:05;20.60;99.90
41481;DHT22;27217;51.220;5.308;2023-06-22T07:46:32;20.50;99.90
41481;DHT22;27217;51.220;5.308;2023-06-22T07:48:58;20.50;99.90
41481;DHT22;27217;51.220;5.308;2023-06-22T07:51:25;20.50;99.90
41481;DHT22;27217;51.220;5.308;2023-06-22T07:53:51;20.60;99.90
41481;DHT22;27217;51.220;5.308;2023-06-22T07:56:16;20.70;99.90
41481;DHT22;27217;51.220;5.308;2023-06-22T07:58:46;20.90;99.90
41481;DHT22;27217;51.220;5.308;2023-06-22T08:01:16;20.90;99.90
41481;DHT22;27217;51.220;5.308;2023-06-22T08:03:42;21.00;99.90
41481;DHT22;27217;51.220;5.308;2023-06-22T08:06:09;21.00;99.90
41481;DHT22;27217;51.220;5.308;2023-06-22T08:08:36;21.00;99.90
41481;DHT22;27217;51.220;5.308;2023-06-22T08:11:02;21.00;99.90
41481;DHT22;27217;51.220;5.308;2023-06-22T08:13:28;21.00;99.90
41481;DHT22;27217;51.220;5.308;2023-06-22T08:15:54;21.20;99.90
41481;DHT22;27217;51.220;5.308;2023-06-22T08:18:20;21.40;99.90
41481;DHT22;27217;51.220;5.308;2023-06-22T08:20:46;21.50;99.90
41481;DHT22;27217;51.220;5.308;2023-06-22T08:23:11;21.50;99.90
41481;DHT22;27217;51.220;5.308;2023-06-22T08:25:37;21.70;99.90
41481;DHT22;27217;51.220;5.308;2023-06-22T08:28:03;21.60;99.90
41481;DHT22;27217;51.220;5.308;2023-06-22T08:30:30;21.40;99.90
41481;DHT22;27217;51.220;5.308;2023-06-22T08:32:55;21.60;99.90
41481;DHT22;27217;51.220;5.308;2023-06-22T08:35:25;21.80;99.90
41481;DHT22;27217;51.220;5.308;2023-06-22T08:37:51;21.90;99.90
41481;DHT22;27217;51.220;5.308;2023-06-22T08:40:23;21.90;99.90
41481;DHT22;27217;51.220;5.308;2023-06-22T08:42:50;22.00;99.90
41481;DHT22;27217;51.220;5.308;2023-06-22T08:45:16;22.20;99.90
41481;DHT22;27217;51.220;5.308;2023-06-22T08:47:43;22.30;99.90
41481;DHT22;27217;51.220;5.308;2023-06-22T08:50:10;22.40;99.90
41481;DHT22;27217;51.220;5.308;2023-06-22T08:52:37;22.50;99.90
41481;DHT22;27217;51.220;5.308;2023-06-22T08:55:03;22.50;99.90
41481;DHT22;27217;51.220;5.308;2023-06-22T08:57:29;22.80;99.90
41481;DHT22;27217;51.220;5.308;2023-06-22T08:59:56;22.70;99.90
41481;DHT22;27217;51.220;5.308;2023-06-22T09:02:27;22.60;99.90
41481;DHT22;27217;51.220;5.308;2023-06-22T09:04:58;22.60;99.90
41481;DHT22;27217;51.220;5.308;2023-06-22T09:07:24;22.40;99.90
41481;DHT22;27217;51.220;5.308;2023-06-22T09:09:51;22.60;99.90
41481;DHT22;27217;51.220;5.308;2023-06-22T09:12:18;22.70;99.90
41481;DHT22;27217;51.220;5.308;2023-06-22T09:14:45;22.70;99.90
41481;DHT22;27217;51.220;5.308;2023-06-22T09:17:13;22.60;99.90
41481;DHT22;27217;51.220;5.308;2023-06-22T09:19:39;22.70;99.90
41481;DHT22;27217;51.220;5.308;2023-06-22T09:22:06;22.80;99.90
41481;DHT22;27217;51.220;5.308;2023-06-22T09:24:33;22.80;99.90
41481;DHT22;27217;51.220;5.308;2023-06-22T09:26:59;22.80;99.90
41481;DHT22;27217;51.220;5.308;2023-06-22T09:29:25;22.90;99.90
41481;DHT22;27217;51.220;5.308;2023-06-22T09:31:50;22.90;99.90
41481;DHT22;27217;51.220;5.308;2023-06-22T09:34:18;23.00;99.90
41481;DHT22;27217;51.220;5.308;2023-06-22T09:36:48;22.90;99.90
41481;DHT22;27217;51.220;5.308;2023-06-22T09:39:14;23.00;99.90
41481;DHT22;27217;51.220;5.308;2023-06-22T09:41:43;23.00;99.90
41481;DHT22;27217;51.220;5.308;2023-06-22T09:44:09;23.00;99.90
41481;DHT22;27217;51.220;5.308;2023-06-22T09:46:34;23.00;99.90
41481;DHT22;27217;51.220;5.308;2023-06-22T09:49:00;23.00;99.90
41481;DHT22;27217;51.220;5.308;2023-06-22T09:51:26;23.00;99.90
41481;DHT22;27217;51.220;5.308;2023-06-22T09:53:52;23.00;99.90
41481;DHT22;27217;51.220;5.308;2023-06-22T09:56:21;23.00;99.90
41481;DHT22;27217;51.220;5.308;2023-06-22T09:58:48;23.10;99.90
41481;DHT22;27217;51.220;5.308;2023-06-22T10:01:15;23.20;99.90
41481;DHT22;27217;51.220;5.308;2023-06-22T10:03:41;23.10;99.90
41481;DHT22;27217;51.220;5.308;2023-06-22T10:06:08;23.30;99.90
41481;DHT22;27217;51.220;5.308;2023-06-22T10:08:35;23.20;99.90
41481;DHT22;27217;51.220;5.308;2023-06-22T10:11:01;23.10;99.90
41481;DHT22;27217;51.220;5.308;2023-06-22T10:13:26;22.70;99.90
41481;DHT22;27217;51.220;5.308;2023-06-22T10:15:52;22.30;99.90
41481;DHT22;27217;51.220;5.308;2023-06-22T10:18:18;22.20;99.90
41481;DHT22;27217;51.220;5.308;2023-06-22T10:20:48;22.10;99.90
41481;DHT22;27217;51.220;5.308;2023-06-22T10:23:20;22.00;99.90
41481;DHT22;27217;51.220;5.308;2023-06-22T10:25:46;21.90;99.90
41481;DHT22;27217;51.220;5.308;2023-06-22T10:28:12;21.90;99.90
41481;DHT22;27217;51.220;5.308;2023-06-22T10:30:41;21.90;99.90
41481;DHT22;27217;51.220;5.308;2023-06-22T10:33:07;21.80;99.90
41481;DHT22;27217;51.220;5.308;2023-06-22T10:35:36;21.60;99.90
41481;DHT22;27217;51.220;5.308;2023-06-22T10:38:06;21.10;99.90
41481;DHT22;27217;51.220;5.308;2023-06-22T10:40:32;21.10;99.90
41481;DHT22;27217;51.220;5.308;2023-06-22T10:42:58;21.10;99.90
41481;DHT22;27217;51.220;5.308;2023-06-22T10:45:24;21.30;99.90
41481;DHT22;27217;51.220;5.308;2023-06-22T10:47:50;21.30;99.90
41481;DHT22;27217;51.220;5.308;2023-06-22T10:50:16;21.20;99.90
41481;DHT22;27217;51.220;5.308;2023-06-22T10:52:42;21.20;99.90
41481;DHT22;27217;51.220;5.308;2023-06-22T10:55:09;21.10;99.90
41481;DHT22;27217;51.220;5.308;2023-06-22T10:57:34;21.20;99.90
41481;DHT22;27217;51.220;5.308;2023-06-22T11:00:00;21.10;99.90
41481;DHT22;27217;51.220;5.308;2023-06-22T11:02:26;21.00;99.90
41481;DHT22;27217;51.220;5.308;2023-06-22T11:04:53;20.80;99.90
41481;DHT22;27217;51.220;5.308;2023-06-22T11:07:19;20.70;99.90
41481;DHT22;27217;51.220;5.308;2023-06-22T11:09:45;20.80;99.90
41481;DHT22;27217;51.220;5.308;2023-06-22T11:12:10;20.80;99.90
41481;DHT22;27217;51.220;5.308;2023-06-22T11:14:36;20.80;99.90
41481;DHT22;27217;51.220;5.308;2023-06-22T11:17:02;20.80;99.90
41481;DHT22;27217;51.220;5.308;2023-06-22T11:19:28;20.70;99.90
41481;DHT22;27217;51.220;5.308;2023-06-22T11:21:53;20.70;99.90
41481;DHT22;27217;51.220;5.308;2023-06-22T11:24:19;20.70;99.90
41481;DHT22;27217;51.220;5.308;2023-06-22T11:26:45;20.80;99.90
41481;DHT22;27217;51.220;5.308;2023-06-22T11:29:10;20.60;99.90
41481;DHT22;27217;51.220;5.308;2023-06-22T11:31:36;20.50;99.90
41481;DHT22;27217;51.220;5.308;2023-06-22T11:34:02;20.60;99.90
41481;DHT22;27217;51.220;5.308;2023-06-22T11:36:29;20.60;99.90
41481;DHT22;27217;51.220;5.308;2023-06-22T11:38:58;20.50;99.90
41481;DHT22;27217;51.220;5.308;2023-06-22T11:41:24;20.60;99.90
41481;DHT22;27217;51.220;5.308;2023-06-22T11:43:49;20.60;99.90
41481;DHT22;27217;51.220;5.308;2023-06-22T11:46:15;20.50;99.90
41481;DHT22;27217;51.220;5.308;2023-06-22T11:48:41;20.40;99.90
41481;DHT22;27217;51.220;5.308;2023-06-22T11:51:07;20.40;99.90
41481;DHT22;27217;51.220;5.308;2023-06-22T11:53:34;20.30;99.90
41481;DHT22;27217;51.220;5.308;2023-06-22T11:56:01;20.20;99.90
41481;DHT22;27217;51.220;5.308;2023-06-22T11:58:27;20.10;99.90
41481;DHT22;27217;51.220;5.308;2023-06-22T12:00:54;19.90;99.90
41481;DHT22;27217;51.220;5.308;2023-06-22T12:03:20;19.80;99.90
41481;DHT22;27217;51.220;5.308;2023-06-22T12:05:47;19.80;99.90
41481;DHT22;27217;51.220;5.308;2023-06-22T12:08:12;19.80;99.90
41481;DHT22;27217;51.220;5.308;2023-06-22T12:10:39;19.80;99.90
41481;DHT22;27217;51.220;5.308;2023-06-22T12:13:05;19.80;99.90
41481;DHT22;27217;51.220;5.308;2023-06-22T12:15:31;19.80;99.90
41481;DHT22;27217;51.220;5.308;2023-06-22T12:17:57;19.90;99.90
41481;DHT22;27217;51.220;5.308;2023-06-22T12:20:23;19.80;99.90
41481;DHT22;27217;51.220;5.308;2023-06-22T12:22:48;19.80;99.90
41481;DHT22;27217;51.220;5.308;2023-06-22T12:25:16;19.80;99.90
41481;DHT22;27217;51.220;5.308;2023-06-22T12:27:43;20.00;99.90
41481;DHT22;27217;51.220;5.308;2023-06-22T12:30:08;20.00;99.90
41481;DHT22;27217;51.220;5.308;2023-06-22T12:32:34;20.10;99.90
41481;DHT22;27217;51.220;5.308;2023-06-22T12:35:00;20.20;99.90
41481;DHT22;27217;51.220;5.308;2023-06-22T12:37:26;20.20;99.90
41481;DHT22;27217;51.220;5.308;2023-06-22T12:39:53;20.20;99.90
41481;DHT22;27217;51.220;5.308;2023-06-22T12:42:18;20.10;99.90
41481;DHT22;27217;51.220;5.308;2023-06-22T12:44:44;20.10;99.90
41481;DHT22;27217;51.220;5.308;2023-06-22T12:47:10;20.10;99.90
41481;DHT22;27217;51.220;5.308;2023-06-22T12:49:36;20.20;99.90
41481;DHT22;27217;51.220;5.308;2023-06-22T12:52:02;20.20;99.90
41481;DHT22;27217;51.220;5.308;2023-06-22T12:54:28;20.20;99.90
41481;DHT22;27217;51.220;5.308;2023-06-22T12:56:55;20.20;99.90
41481;DHT22;27217;51.220;5.308;2023-06-22T12:59:23;20.20;99.90
41481;DHT22;27217;51.220;5.308;2023-06-22T13:01:49;20.30;99.90
41481;DHT22;27217;51.220;5.308;2023-06-22T13:04:15;20.20;99.90
41481;DHT22;27217;51.220;5.308;2023-06-22T13:06:45;20.10;99.90
41481;DHT22;27217;51.220;5.308;2023-06-22T13:09:14;20.10;99.90
41481;DHT22;27217;51.220;5.308;2023-06-22T13:11:41;20.10;99.90
41481;DHT22;27217;51.220;5.308;2023-06-22T13:14:06;20.10;99.90
41481;DHT22;27217;51.220;5.308;2023-06-22T13:16:32;20.00;99.90
41481;DHT22;27217;51.220;5.308;2023-06-22T13:18:58;20.10;99.90
41481;DHT22;27217;51.220;5.308;2023-06-22T13:21:24;20.00;99.90
41481;DHT22;27217;51.220;5.308;2023-06-22T13:23:50;20.00;99.90
41481;DHT22;27217;51.220;5.308;2023-06-22T13:26:16;19.90;99.90
41481;DHT22;27217;51.220;5.308;2023-06-22T13:28:41;19.90;99.90
41481;DHT22;27217;51.220;5.308;2023-06-22T13:31:07;19.80;99.90
41481;DHT22;27217;51.220;5.308;2023-06-22T13:33:33;19.80;99.90
41481;DHT22;27217;51.220;5.308;2023-06-22T13:35:59;19.80;99.90
41481;DHT22;27217;51.220;5.308;2023-06-22T13:38:27;19.70;99.90
41481;DHT22;27217;51.220;5.308;2023-06-22T13:40:52;19.60;99.90
41481;DHT22;27217;51.220;5.308;2023-06-22T13:43:20;19.50;99.90
41481;DHT22;27217;51.220;5.308;2023-06-22T13:45:46;19.30;99.90
41481;DHT22;27217;51.220;5.308;2023-06-22T13:48:12;19.00;99.90
41481;DHT22;27217;51.220;5.308;2023-06-22T13:50:37;19.20;99.90
41481;DHT22;27217;51.220;5.308;2023-06-22T13:53:03;19.10;99.90
41481;DHT22;27217;51.220;5.308;2023-06-22T13:55:29;19.10;99.90
41481;DHT22;27217;51.220;5.308;2023-06-22T13:57:56;19.00;99.90
41481;DHT22;27217;51.220;5.308;2023-06-22T14:00:21;19.00;99.90
41481;DHT22;27217;51.220;5.308;2023-06-22T14:02:47;19.10;99.90
41481;DHT22;27217;51.220;5.308;2023-06-22T14:05:13;19.00;99.90
41481;DHT22;27217;51.220;5.308;2023-06-22T14:07:39;19.10;99.90
41481;DHT22;27217;51.220;5.308;2023-06-22T14:10:05;18.90;99.90
41481;DHT22;27217;51.220;5.308;2023-06-22T14:12:31;19.00;99.90
41481;DHT22;27217;51.220;5.308;2023-06-22T14:14:57;18.90;99.90
41481;DHT22;27217;51.220;5.308;2023-06-22T14:17:23;18.90;99.90
41481;DHT22;27217;51.220;5.308;2023-06-22T14:19:52;18.90;99.90
41481;DHT22;27217;51.220;5.308;2023-06-22T14:22:19;18.90;99.90
41481;DHT22;27217;51.220;5.308;2023-06-22T14:24:45;18.90;99.90
41481;DHT22;27217;51.220;5.308;2023-06-22T14:27:11;18.90;99.90
41481;DHT22;27217;51.220;5.308;2023-06-22T14:29:37;19.00;99.90
41481;DHT22;27217;51.220;5.308;2023-06-22T14:32:03;18.90;99.90
41481;DHT22;27217;51.220;5.308;2023-06-22T14:34:29;18.90;99.90
41481;DHT22;27217;51.220;5.308;2023-06-22T14:36:55;19.00;99.90
41481;DHT22;27217;51.220;5.308;2023-06-22T14:39:22;18.90;99.90
41481;DHT22;27217;51.220;5.308;2023-06-22T14:41:48;18.80;99.90
41481;DHT22;27217;51.220;5.308;2023-06-22T14:44:14;18.80;99.90
41481;DHT22;27217;51.220;5.308;2023-06-22T14:46:40;18.80;99.90
41481;DHT22;27217;51.220;5.308;2023-06-22T14:49:06;18.60;99.90
41481;DHT22;27217;51.220;5.308;2023-06-22T14:51:32;18.60;99.90
41481;DHT22;27217;51.220;5.308;2023-06-22T14:53:58;18.60;99.90
41481;DHT22;27217;51.220;5.308;2023-06-22T14:56:23;18.60;99.90
41481;DHT22;27217;51.220;5.308;2023-06-22T14:58:49;18.70;99.90
41481;DHT22;27217;51.220;5.308;2023-06-22T15:01:18;18.70;99.90
41481;DHT22;27217;51.220;5.308;2023-06-22T15:03:45;18.60;99.90
41481;DHT22;27217;51.220;5.308;2023-06-22T15:06:10;18.60;99.90
41481;DHT22;27217;51.220;5.308;2023-06-22T15:08:40;18.70;99.90
41481;DHT22;27217;51.220;5.308;2023-06-22T15:11:06;18.70;99.90
41481;DHT22;27217;51.220;5.308;2023-06-22T15:13:33;18.60;99.90
41481;DHT22;27217;51.220;5.308;2023-06-22T15:16:00;18.60;99.90
41481;DHT22;27217;51.220;5.308;2023-06-22T15:18:26;18.60;99.90
41481;DHT22;27217;51.220;5.308;2023-06-22T15:20:52;18.60;99.90
41481;DHT22;27217;51.220;5.308;2023-06-22T15:23:18;18.60;99.90
41481;DHT22;27217;51.220;5.308;2023-06-22T15:25:45;18.60;99.90
41481;DHT22;27217;51.220;5.308;2023-06-22T15:28:11;18.50;99.90
41481;DHT22;27217;51.220;5.308;2023-06-22T15:30:40;18.60;99.90
41481;DHT22;27217;51.220;5.308;2023-06-22T15:33:06;18.60;99.90